sensor_id;sensor_type;location;lat;lon;timestamp;P1;durP1;ratioP1;P2;durP2;ratioP2
51614;SDS011;37695;52.960;6.188;2023-04-03T00:01:14;2.28;;;1.10;;
51614;SDS011;37695;52.960;6.188;2023-04-03T00:03:40;1.42;;;0.93;;
51614;SDS011;37695;52.960;6.188;2023-04-03T00:06:06;1.80;;;1.10;;
51614;SDS011;37695;52.960;6.188;2023-04-03T00:08:33;2.38;;;1.08;;
51614;SDS011;37695;52.960;6.188;2023-04-03T00:11:00;3.80;;;1.20;;
51614;SDS011;37695;52.960;6.188;2023-04-03T00:13:25;1.50;;;1.15;;
51614;SDS011;37695;52.960;6.188;2023-04-03T00:15:51;2.40;;;1.10;;
51614;SDS011;37695;52.960;6.188;2023-04-03T00:18:17;2.35;;;1.13;;
51614;SDS011;37695;52.960;6.188;2023-04-03T00:20:43;2.72;;;1.20;;
51614;SDS011;37695;52.960;6.188;2023-04-03T00:23:08;1.58;;;0.95;;
51614;SDS011;37695;52.960;6.188;2023-04-03T00:25:34;3.15;;;1.20;;
51614;SDS011;37695;52.960;6.188;2023-04-03T00:28:00;1.63;;;1.10;;
51614;SDS011;37695;52.960;6.188;2023-04-03T00:30:26;1.80;;;1.23;;
51614;SDS011;37695;52.960;6.188;2023-04-03T00:32:51;1.60;;;1.02;;
51614;SDS011;37695;52.960;6.188;2023-04-03T00:35:18;1.90;;;1.13;;
51614;SDS011;37695;52.960;6.188;2023-04-03T00:37:45;2.38;;;1.13;;
51614;SDS011;37695;52.960;6.188;2023-04-03T00:40:12;1.95;;;1.15;;
51614;SDS011;37695;52.960;6.188;2023-04-03T00:42:39;4.70;;;1.20;;
51614;SDS011;37695;52.960;6.188;2023-04-03T00:47:31;2.97;;;1.10;;
51614;SDS011;37695;52.960;6.188;2023-04-03T00:49:57;1.95;;;1.40;;
51614;SDS011;37695;52.960;6.188;2023-04-03T00:52:25;1.75;;;1.02;;
51614;SDS011;37695;52.960;6.188;2023-04-03T00:54:54;2.88;;;1.27;;
51614;SDS011;37695;52.960;6.188;2023-04-03T00:57:24;1.25;;;1.00;;
51614;SDS011;37695;52.960;6.188;2023-04-03T00:59:53;2.45;;;1.08;;
51614;SDS011;37695;52.960;6.188;2023-04-03T01:02:22;1.73;;;1.00;;
51614;SDS011;37695;52.960;6.188;2023-04-03T01:04:47;2.00;;;1.10;;
51614;SDS011;37695;52.960;6.188;2023-04-03T01:07:17;2.90;;;0.95;;
51614;SDS011;37695;52.960;6.188;2023-04-03T01:09:48;2.20;;;1.17;;
51614;SDS011;37695;52.960;6.188;2023-04-03T01:12:18;1.42;;;1.10;;
51614;SDS011;37695;52.960;6.188;2023-04-03T01:14:44;2.50;;;1.08;;
51614;SDS011;37695;52.960;6.188;2023-04-03T01:20:35;2.35;;;1.10;;
51614;SDS011;37695;52.960;6.188;2023-04-03T01:23:30;1.50;;;0.95;;
51614;SDS011;37695;52.960;6.188;2023-04-03T01:26:01;2.63;;;1.23;;
51614;SDS011;37695;52.960;6.188;2023-04-03T01:28:29;2.78;;;1.20;;
51614;SDS011;37695;52.960;6.188;2023-04-03T01:33:49;2.65;;;1.20;;
51614;SDS011;37695;52.960;6.188;2023-04-03T01:36:19;2.25;;;1.10;;
51614;SDS011;37695;52.960;6.188;2023-04-03T01:38:47;2.30;;;1.00;;
51614;SDS011;37695;52.960;6.188;2023-04-03T01:41:13;1.73;;;1.30;;
51614;SDS011;37695;52.960;6.188;2023-04-03T01:43:40;1.42;;;1.13;;
51614;SDS011;37695;52.960;6.188;2023-04-03T01:46:06;2.00;;;1.40;;
51614;SDS011;37695;52.960;6.188;2023-04-03T01:48:32;1.40;;;1.08;;
51614;SDS011;37695;52.960;6.188;2023-04-03T01:50:58;3.63;;;1.20;;
51614;SDS011;37695;52.960;6.188;2023-04-03T01:53:23;2.50;;;1.10;;
51614;SDS011;37695;52.960;6.188;2023-04-03T01:55:49;1.77;;;1.10;;
51614;SDS011;37695;52.960;6.188;2023-04-03T01:58:15;1.52;;;1.15;;
51614;SDS011;37695;52.960;6.188;2023-04-03T02:00:41;1.90;;;1.10;;
51614;SDS011;37695;52.960;6.188;2023-04-03T02:03:06;1.65;;;1.10;;
51614;SDS011;37695;52.960;6.188;2023-04-03T02:05:32;2.03;;;1.20;;
51614;SDS011;37695;52.960;6.188;2023-04-03T02:07:58;1.88;;;1.30;;
51614;SDS011;37695;52.960;6.188;2023-04-03T02:10:23;2.20;;;1.30;;
51614;SDS011;37695;52.960;6.188;2023-04-03T02:12:49;2.33;;;1.20;;
51614;SDS011;37695;52.960;6.188;2023-04-03T02:15:15;3.42;;;1.38;;
51614;SDS011;37695;52.960;6.188;2023-04-03T02:17:41;2.90;;;1.30;;
51614;SDS011;37695;52.960;6.188;2023-04-03T02:20:07;1.70;;;1.10;;
51614;SDS011;37695;52.960;6.188;2023-04-03T02:22:33;1.85;;;1.10;;
51614;SDS011;37695;52.960;6.188;2023-04-03T02:24:58;4.30;;;1.10;;
51614;SDS011;37695;52.960;6.188;2023-04-03T02:27:24;1.98;;;1.20;;
51614;SDS011;37695;52.960;6.188;2023-04-03T02:29:49;3.33;;;1.35;;
51614;SDS011;37695;52.960;6.188;2023-04-03T02:32:15;3.30;;;1.45;;
51614;SDS011;37695;52.960;6.188;2023-04-03T02:34:41;2.45;;;1.10;;
51614;SDS011;37695;52.960;6.188;2023-04-03T02:37:06;1.83;;;1.30;;
51614;SDS011;37695;52.960;6.188;2023-04-03T02:39:32;1.48;;;1.20;;
51614;SDS011;37695;52.960;6.188;2023-04-03T02:41:57;3.92;;;1.55;;
51614;SDS011;37695;52.960;6.188;2023-04-03T02:44:23;2.78;;;1.25;;
51614;SDS011;37695;52.960;6.188;2023-04-03T02:46:48;2.97;;;1.27;;
51614;SDS011;37695;52.960;6.188;2023-04-03T02:49:14;1.67;;;1.38;;
51614;SDS011;37695;52.960;6.188;2023-04-03T02:51:40;2.08;;;1.33;;
51614;SDS011;37695;52.960;6.188;2023-04-03T02:54:06;2.05;;;1.30;;
51614;SDS011;37695;52.960;6.188;2023-04-03T02:56:32;2.15;;;1.30;;
51614;SDS011;37695;52.960;6.188;2023-04-03T02:58:57;3.67;;;1.55;;
51614;SDS011;37695;52.960;6.188;2023-04-03T03:01:23;4.20;;;1.50;;
51614;SDS011;37695;52.960;6.188;2023-04-03T03:03:49;2.35;;;1.10;;
51614;SDS011;37695;52.960;6.188;2023-04-03T03:06:15;3.40;;;1.33;;
51614;SDS011;37695;52.960;6.188;2023-04-03T03:08:42;3.88;;;1.67;;
51614;SDS011;37695;52.960;6.188;2023-04-03T03:11:08;1.80;;;1.20;;
51614;SDS011;37695;52.960;6.188;2023-04-03T03:13:34;1.40;;;1.08;;
51614;SDS011;37695;52.960;6.188;2023-04-03T03:16:00;2.33;;;1.40;;
51614;SDS011;37695;52.960;6.188;2023-04-03T03:18:27;2.80;;;1.42;;
51614;SDS011;37695;52.960;6.188;2023-04-03T03:20:53;3.78;;;1.40;;
51614;SDS011;37695;52.960;6.188;2023-04-03T03:23:23;5.03;;;1.50;;
51614;SDS011;37695;52.960;6.188;2023-04-03T03:25:54;6.63;;;1.38;;
51614;SDS011;37695;52.960;6.188;2023-04-03T03:28:21;3.33;;;1.50;;
51614;SDS011;37695;52.960;6.188;2023-04-03T03:30:46;3.38;;;1.40;;
51614;SDS011;37695;52.960;6.188;2023-04-03T03:33:12;4.95;;;2.47;;
51614;SDS011;37695;52.960;6.188;2023-04-03T03:35:37;2.05;;;1.60;;
51614;SDS011;37695;52.960;6.188;2023-04-03T03:38:03;4.65;;;1.40;;
51614;SDS011;37695;52.960;6.188;2023-04-03T03:40:28;5.75;;;1.52;;
51614;SDS011;37695;52.960;6.188;2023-04-03T03:42:54;2.42;;;1.20;;
51614;SDS011;37695;52.960;6.188;2023-04-03T03:45:20;3.33;;;1.42;;
51614;SDS011;37695;52.960;6.188;2023-04-03T03:47:45;3.60;;;1.65;;
51614;SDS011;37695;52.960;6.188;2023-04-03T03:50:11;2.67;;;1.38;;
51614;SDS011;37695;52.960;6.188;2023-04-03T03:52:36;3.22;;;1.75;;
51614;SDS011;37695;52.960;6.188;2023-04-03T03:55:03;2.20;;;1.20;;
51614;SDS011;37695;52.960;6.188;2023-04-03T03:57:29;4.50;;;1.60;;
51614;SDS011;37695;52.960;6.188;2023-04-03T03:59:55;3.15;;;1.38;;
51614;SDS011;37695;52.960;6.188;2023-04-03T04:02:21;3.03;;;1.40;;
51614;SDS011;37695;52.960;6.188;2023-04-03T04:04:46;4.25;;;1.67;;
51614;SDS011;37695;52.960;6.188;2023-04-03T04:07:13;3.20;;;1.50;;
51614;SDS011;37695;52.960;6.188;2023-04-03T04:09:39;2.97;;;1.40;;
51614;SDS011;37695;52.960;6.188;2023-04-03T04:12:05;3.85;;;1.63;;
51614;SDS011;37695;52.960;6.188;2023-04-03T04:14:30;2.33;;;1.40;;
51614;SDS011;37695;52.960;6.188;2023-04-03T04:16:56;4.68;;;1.73;;
51614;SDS011;37695;52.960;6.188;2023-04-03T04:19:22;3.30;;;1.60;;
51614;SDS011;37695;52.960;6.188;2023-04-03T04:21:47;2.47;;;1.30;;
51614;SDS011;37695;52.960;6.188;2023-04-03T04:24:13;2.85;;;1.70;;
51614;SDS011;37695;52.960;6.188;2023-04-03T04:26:38;2.83;;;1.50;;
51614;SDS011;37695;52.960;6.188;2023-04-03T04:29:04;4.68;;;2.58;;
51614;SDS011;37695;52.960;6.188;2023-04-03T04:31:29;3.63;;;1.60;;
51614;SDS011;37695;52.960;6.188;2023-04-03T04:33:55;3.30;;;1.40;;
51614;SDS011;37695;52.960;6.188;2023-04-03T04:36:20;3.08;;;1.30;;
51614;SDS011;37695;52.960;6.188;2023-04-03T04:38:46;2.90;;;1.58;;
51614;SDS011;37695;52.960;6.188;2023-04-03T04:41:12;3.47;;;1.58;;
51614;SDS011;37695;52.960;6.188;2023-04-03T04:43:37;2.20;;;1.35;;
51614;SDS011;37695;52.960;6.188;2023-04-03T04:46:04;5.10;;;1.30;;
51614;SDS011;37695;52.960;6.188;2023-04-03T04:48:31;1.88;;;1.30;;
51614;SDS011;37695;52.960;6.188;2023-04-03T04:50:57;3.40;;;1.40;;
51614;SDS011;37695;52.960;6.188;2023-04-03T04:53:23;3.50;;;1.45;;
51614;SDS011;37695;52.960;6.188;2023-04-03T04:55:48;1.95;;;1.35;;
51614;SDS011;37695;52.960;6.188;2023-04-03T04:58:14;3.03;;;1.67;;
51614;SDS011;37695;52.960;6.188;2023-04-03T05:00:40;4.53;;;1.40;;
51614;SDS011;37695;52.960;6.188;2023-04-03T05:03:05;6.20;;;1.85;;
51614;SDS011;37695;52.960;6.188;2023-04-03T05:05:31;6.15;;;1.70;;
51614;SDS011;37695;52.960;6.188;2023-04-03T05:07:56;2.58;;;1.60;;
51614;SDS011;37695;52.960;6.188;2023-04-03T05:10:22;3.53;;;1.45;;
51614;SDS011;37695;52.960;6.188;2023-04-03T05:12:47;4.65;;;2.10;;
51614;SDS011;37695;52.960;6.188;2023-04-03T05:15:13;3.22;;;1.70;;
51614;SDS011;37695;52.960;6.188;2023-04-03T05:17:39;3.50;;;1.75;;
51614;SDS011;37695;52.960;6.188;2023-04-03T05:20:04;6.10;;;2.33;;
51614;SDS011;37695;52.960;6.188;2023-04-03T05:22:31;4.80;;;1.70;;
51614;SDS011;37695;52.960;6.188;2023-04-03T05:24:56;4.22;;;1.92;;
51614;SDS011;37695;52.960;6.188;2023-04-03T05:27:22;3.30;;;1.95;;
51614;SDS011;37695;52.960;6.188;2023-04-03T05:29:53;3.53;;;1.77;;
51614;SDS011;37695;52.960;6.188;2023-04-03T05:32:19;4.03;;;1.85;;
51614;SDS011;37695;52.960;6.188;2023-04-03T05:34:45;5.65;;;2.08;;
51614;SDS011;37695;52.960;6.188;2023-04-03T05:37:11;3.33;;;1.83;;
51614;SDS011;37695;52.960;6.188;2023-04-03T05:39:36;5.07;;;2.28;;
51614;SDS011;37695;52.960;6.188;2023-04-03T05:42:05;6.30;;;2.38;;
51614;SDS011;37695;52.960;6.188;2023-04-03T05:44:31;5.63;;;1.90;;
51614;SDS011;37695;52.960;6.188;2023-04-03T05:46:56;3.42;;;2.00;;
51614;SDS011;37695;52.960;6.188;2023-04-03T05:49:22;3.58;;;1.50;;
51614;SDS011;37695;52.960;6.188;2023-04-03T05:51:47;4.25;;;1.88;;
51614;SDS011;37695;52.960;6.188;2023-04-03T05:54:20;4.05;;;2.35;;
51614;SDS011;37695;52.960;6.188;2023-04-03T05:56:49;4.75;;;2.10;;
51614;SDS011;37695;52.960;6.188;2023-04-03T05:59:16;6.18;;;2.00;;
51614;SDS011;37695;52.960;6.188;2023-04-03T06:01:43;5.03;;;1.98;;
51614;SDS011;37695;52.960;6.188;2023-04-03T06:04:09;4.75;;;2.10;;
51614;SDS011;37695;52.960;6.188;2023-04-03T06:06:48;4.05;;;1.98;;
51614;SDS011;37695;52.960;6.188;2023-04-03T06:09:19;5.07;;;2.00;;
51614;SDS011;37695;52.960;6.188;2023-04-03T06:11:47;4.53;;;2.00;;
51614;SDS011;37695;52.960;6.188;2023-04-03T06:14:12;4.18;;;2.00;;
51614;SDS011;37695;52.960;6.188;2023-04-03T06:16:38;4.88;;;2.08;;
51614;SDS011;37695;52.960;6.188;2023-04-03T06:19:05;6.13;;;2.42;;
51614;SDS011;37695;52.960;6.188;2023-04-03T06:21:32;6.38;;;2.40;;
51614;SDS011;37695;52.960;6.188;2023-04-03T06:23:57;3.58;;;2.05;;
51614;SDS011;37695;52.960;6.188;2023-04-03T06:26:23;6.70;;;2.35;;
51614;SDS011;37695;52.960;6.188;2023-04-03T06:28:49;4.22;;;2.20;;
51614;SDS011;37695;52.960;6.188;2023-04-03T06:31:14;10.27;;;2.50;;
51614;SDS011;37695;52.960;6.188;2023-04-03T06:33:41;7.20;;;4.25;;
51614;SDS011;37695;52.960;6.188;2023-04-03T06:36:07;7.97;;;3.05;;
51614;SDS011;37695;52.960;6.188;2023-04-03T06:38:33;7.50;;;2.25;;
51614;SDS011;37695;52.960;6.188;2023-04-03T06:40:59;4.72;;;2.35;;
51614;SDS011;37695;52.960;6.188;2023-04-03T06:43:25;3.92;;;2.33;;
51614;SDS011;37695;52.960;6.188;2023-04-03T06:45:51;5.40;;;1.77;;
51614;SDS011;37695;52.960;6.188;2023-04-03T06:48:16;5.05;;;2.40;;
51614;SDS011;37695;52.960;6.188;2023-04-03T06:50:42;3.45;;;2.00;;
51614;SDS011;37695;52.960;6.188;2023-04-03T06:53:08;5.78;;;2.45;;
51614;SDS011;37695;52.960;6.188;2023-04-03T06:55:34;3.55;;;1.90;;
51614;SDS011;37695;52.960;6.188;2023-04-03T06:57:59;4.03;;;1.80;;
51614;SDS011;37695;52.960;6.188;2023-04-03T07:00:25;6.93;;;2.60;;
51614;SDS011;37695;52.960;6.188;2023-04-03T07:02:51;3.67;;;1.80;;
51614;SDS011;37695;52.960;6.188;2023-04-03T07:05:17;4.60;;;2.28;;
51614;SDS011;37695;52.960;6.188;2023-04-03T07:07:43;4.45;;;2.22;;
51614;SDS011;37695;52.960;6.188;2023-04-03T07:10:09;3.47;;;1.83;;
51614;SDS011;37695;52.960;6.188;2023-04-03T07:12:35;7.32;;;2.40;;
51614;SDS011;37695;52.960;6.188;2023-04-03T07:15:01;5.35;;;2.15;;
51614;SDS011;37695;52.960;6.188;2023-04-03T07:17:28;6.93;;;2.45;;
51614;SDS011;37695;52.960;6.188;2023-04-03T07:19:53;4.90;;;2.10;;
51614;SDS011;37695;52.960;6.188;2023-04-03T07:22:19;4.28;;;2.00;;
51614;SDS011;37695;52.960;6.188;2023-04-03T07:24:45;5.60;;;2.28;;
51614;SDS011;37695;52.960;6.188;2023-04-03T07:27:11;5.70;;;2.10;;
51614;SDS011;37695;52.960;6.188;2023-04-03T07:29:37;7.47;;;2.30;;
51614;SDS011;37695;52.960;6.188;2023-04-03T07:32:03;5.25;;;2.08;;
51614;SDS011;37695;52.960;6.188;2023-04-03T07:34:30;6.05;;;1.85;;
51614;SDS011;37695;52.960;6.188;2023-04-03T07:36:57;7.40;;;2.28;;
51614;SDS011;37695;52.960;6.188;2023-04-03T07:39:23;3.80;;;1.75;;
51614;SDS011;37695;52.960;6.188;2023-04-03T07:41:49;5.07;;;1.92;;
51614;SDS011;37695;52.960;6.188;2023-04-03T07:44:14;6.25;;;1.95;;
51614;SDS011;37695;52.960;6.188;2023-04-03T07:46:40;6.20;;;1.60;;
51614;SDS011;37695;52.960;6.188;2023-04-03T07:49:07;4.78;;;1.65;;
51614;SDS011;37695;52.960;6.188;2023-04-03T07:51:32;6.15;;;1.65;;
51614;SDS011;37695;52.960;6.188;2023-04-03T07:53:58;4.88;;;1.77;;
51614;SDS011;37695;52.960;6.188;2023-04-03T07:56:24;5.55;;;1.98;;
51614;SDS011;37695;52.960;6.188;2023-04-03T07:58:50;7.75;;;2.28;;
51614;SDS011;37695;52.960;6.188;2023-04-03T08:01:15;2.83;;;1.60;;
51614;SDS011;37695;52.960;6.188;2023-04-03T08:03:41;3.42;;;1.73;;
51614;SDS011;37695;52.960;6.188;2023-04-03T08:06:07;4.18;;;1.60;;
51614;SDS011;37695;52.960;6.188;2023-04-03T08:08:34;2.88;;;1.50;;
51614;SDS011;37695;52.960;6.188;2023-04-03T08:11:00;3.83;;;1.80;;
51614;SDS011;37695;52.960;6.188;2023-04-03T08:13:27;5.63;;;1.88;;
51614;SDS011;37695;52.960;6.188;2023-04-03T08:15:54;5.07;;;1.50;;
51614;SDS011;37695;52.960;6.188;2023-04-03T08:18:22;5.43;;;1.70;;
51614;SDS011;37695;52.960;6.188;2023-04-03T08:20:49;6.15;;;1.80;;
51614;SDS011;37695;52.960;6.188;2023-04-03T08:23:16;3.42;;;1.60;;
51614;SDS011;37695;52.960;6.188;2023-04-03T08:25:42;3.22;;;1.85;;
51614;SDS011;37695;52.960;6.188;2023-04-03T08:28:09;3.97;;;1.70;;
51614;SDS011;37695;52.960;6.188;2023-04-03T08:30:37;3.92;;;1.60;;
51614;SDS011;37695;52.960;6.188;2023-04-03T08:33:04;3.58;;;1.58;;
51614;SDS011;37695;52.960;6.188;2023-04-03T08:35:30;3.50;;;1.40;;
51614;SDS011;37695;52.960;6.188;2023-04-03T08:37:55;4.72;;;1.88;;
51614;SDS011;37695;52.960;6.188;2023-04-03T08:40:21;3.95;;;1.38;;
51614;SDS011;37695;52.960;6.188;2023-04-03T08:43:30;3.08;;;1.45;;
51614;SDS011;37695;52.960;6.188;2023-04-03T08:45:53;3.10;;;1.42;;
51614;SDS011;37695;52.960;6.188;2023-04-03T08:48:35;4.00;;;1.50;;
51614;SDS011;37695;52.960;6.188;2023-04-03T08:51:09;4.18;;;1.88;;
51614;SDS011;37695;52.960;6.188;2023-04-03T08:53:41;5.00;;;1.45;;
51614;SDS011;37695;52.960;6.188;2023-04-03T08:56:29;5.25;;;2.15;;
51614;SDS011;37695;52.960;6.188;2023-04-03T08:59:14;3.92;;;1.67;;
51614;SDS011;37695;52.960;6.188;2023-04-03T09:01:46;7.35;;;1.50;;
51614;SDS011;37695;52.960;6.188;2023-04-03T09:04:13;3.10;;;1.40;;
51614;SDS011;37695;52.960;6.188;2023-04-03T09:06:42;8.07;;;3.13;;
51614;SDS011;37695;52.960;6.188;2023-04-03T09:09:15;3.38;;;1.70;;
51614;SDS011;37695;52.960;6.188;2023-04-03T09:14:45;3.55;;;1.52;;
51614;SDS011;37695;52.960;6.188;2023-04-03T09:17:27;3.60;;;1.40;;
51614;SDS011;37695;52.960;6.188;2023-04-03T09:22:56;4.07;;;1.50;;
51614;SDS011;37695;52.960;6.188;2023-04-03T09:25:25;4.38;;;1.52;;
51614;SDS011;37695;52.960;6.188;2023-04-03T09:27:54;3.45;;;1.52;;
51614;SDS011;37695;52.960;6.188;2023-04-03T09:30:22;2.92;;;1.45;;
51614;SDS011;37695;52.960;6.188;2023-04-03T09:32:50;4.38;;;1.40;;
51614;SDS011;37695;52.960;6.188;2023-04-03T09:35:19;2.45;;;1.50;;
51614;SDS011;37695;52.960;6.188;2023-04-03T09:45:41;3.38;;;1.25;;
51614;SDS011;37695;52.960;6.188;2023-04-03T09:56:26;2.42;;;1.25;;
51614;SDS011;37695;52.960;6.188;2023-04-03T10:01:30;2.70;;;1.17;;
51614;SDS011;37695;52.960;6.188;2023-04-03T10:04:08;2.17;;;1.33;;
51614;SDS011;37695;52.960;6.188;2023-04-03T10:06:39;1.95;;;1.33;;
51614;SDS011;37695;52.960;6.188;2023-04-03T10:09:29;2.55;;;1.20;;
51614;SDS011;37695;52.960;6.188;2023-04-03T10:14:31;3.33;;;1.40;;
51614;SDS011;37695;52.960;6.188;2023-04-03T10:17:01;2.00;;;1.05;;
51614;SDS011;37695;52.960;6.188;2023-04-03T10:25:12;4.40;;;1.35;;
51614;SDS011;37695;52.960;6.188;2023-04-03T10:28:01;1.48;;;0.90;;
51614;SDS011;37695;52.960;6.188;2023-04-03T10:33:25;3.33;;;0.93;;
51614;SDS011;37695;52.960;6.188;2023-04-03T10:39:08;2.20;;;1.30;;
51614;SDS011;37695;52.960;6.188;2023-04-03T10:44:50;2.40;;;1.00;;
51614;SDS011;37695;52.960;6.188;2023-04-03T10:47:21;2.55;;;0.98;;
51614;SDS011;37695;52.960;6.188;2023-04-03T10:52:48;1.55;;;0.90;;
51614;SDS011;37695;52.960;6.188;2023-04-03T10:58:00;2.40;;;1.02;;
51614;SDS011;37695;52.960;6.188;2023-04-03T11:00:41;2.70;;;1.10;;
51614;SDS011;37695;52.960;6.188;2023-04-03T11:03:12;3.30;;;1.10;;
51614;SDS011;37695;52.960;6.188;2023-04-03T11:05:49;1.55;;;1.00;;
51614;SDS011;37695;52.960;6.188;2023-04-03T11:11:06;2.10;;;1.15;;
51614;SDS011;37695;52.960;6.188;2023-04-03T11:16:04;1.35;;;0.90;;
51614;SDS011;37695;52.960;6.188;2023-04-03T11:20:59;3.47;;;1.10;;
51614;SDS011;37695;52.960;6.188;2023-04-03T11:23:30;2.97;;;0.90;;
51614;SDS011;37695;52.960;6.188;2023-04-03T11:26:21;3.25;;;1.10;;
51614;SDS011;37695;52.960;6.188;2023-04-03T11:28:58;1.98;;;1.13;;
51614;SDS011;37695;52.960;6.188;2023-04-03T11:34:37;1.60;;;1.00;;
51614;SDS011;37695;52.960;6.188;2023-04-03T11:37:24;3.92;;;1.25;;
51614;SDS011;37695;52.960;6.188;2023-04-03T11:39:53;3.17;;;1.13;;
51614;SDS011;37695;52.960;6.188;2023-04-03T11:42:25;2.15;;;1.10;;
51614;SDS011;37695;52.960;6.188;2023-04-03T11:47:54;3.03;;;1.17;;
51614;SDS011;37695;52.960;6.188;2023-04-03T11:50:41;2.38;;;0.98;;
51614;SDS011;37695;52.960;6.188;2023-04-03T11:58:17;3.35;;;1.02;;
51614;SDS011;37695;52.960;6.188;2023-04-03T12:08:43;5.25;;;1.42;;
51614;SDS011;37695;52.960;6.188;2023-04-03T12:16:22;2.05;;;1.00;;
51614;SDS011;37695;52.960;6.188;2023-04-03T12:26:48;1.90;;;1.08;;
51614;SDS011;37695;52.960;6.188;2023-04-03T12:29:27;2.20;;;1.10;;
51614;SDS011;37695;52.960;6.188;2023-04-03T12:40:09;2.70;;;1.50;;
51614;SDS011;37695;52.960;6.188;2023-04-03T12:48:27;3.30;;;1.15;;
51614;SDS011;37695;52.960;6.188;2023-04-03T12:50:55;3.75;;;1.35;;
51614;SDS011;37695;52.960;6.188;2023-04-03T12:53:34;2.95;;;1.20;;
51614;SDS011;37695;52.960;6.188;2023-04-03T12:58:47;2.97;;;1.40;;
51614;SDS011;37695;52.960;6.188;2023-04-03T13:01:14;4.75;;;1.40;;
51614;SDS011;37695;52.960;6.188;2023-04-03T13:03:48;3.53;;;1.17;;
51614;SDS011;37695;52.960;6.188;2023-04-03T13:06:22;4.10;;;1.23;;
51614;SDS011;37695;52.960;6.188;2023-04-03T13:08:54;2.72;;;1.40;;
51614;SDS011;37695;52.960;6.188;2023-04-03T13:11:25;4.28;;;1.25;;
51614;SDS011;37695;52.960;6.188;2023-04-03T13:13:58;3.47;;;1.40;;
51614;SDS011;37695;52.960;6.188;2023-04-03T13:16:25;3.03;;;1.20;;
51614;SDS011;37695;52.960;6.188;2023-04-03T13:18:52;2.55;;;1.30;;
51614;SDS011;37695;52.960;6.188;2023-04-03T13:21:20;3.95;;;1.20;;
51614;SDS011;37695;52.960;6.188;2023-04-03T13:23:50;2.60;;;1.42;;
51614;SDS011;37695;52.960;6.188;2023-04-03T13:26:19;3.67;;;1.40;;
51614;SDS011;37695;52.960;6.188;2023-04-03T13:28:47;2.20;;;1.27;;
51614;SDS011;37695;52.960;6.188;2023-04-03T13:31:17;2.83;;;1.50;;
51614;SDS011;37695;52.960;6.188;2023-04-03T13:33:57;2.67;;;1.42;;
51614;SDS011;37695;52.960;6.188;2023-04-03T13:36:31;3.28;;;1.33;;
51614;SDS011;37695;52.960;6.188;2023-04-03T13:39:00;5.32;;;1.67;;
51614;SDS011;37695;52.960;6.188;2023-04-03T13:41:35;2.00;;;1.08;;
51614;SDS011;37695;52.960;6.188;2023-04-03T13:46:50;3.58;;;1.60;;
51614;SDS011;37695;52.960;6.188;2023-04-03T13:49:43;5.80;;;1.33;;
51614;SDS011;37695;52.960;6.188;2023-04-03T13:52:29;2.00;;;1.27;;
51614;SDS011;37695;52.960;6.188;2023-04-03T13:55:01;4.88;;;1.45;;
51614;SDS011;37695;52.960;6.188;2023-04-03T13:57:56;2.83;;;1.50;;
51614;SDS011;37695;52.960;6.188;2023-04-03T14:03:16;2.90;;;1.50;;
51614;SDS011;37695;52.960;6.188;2023-04-03T14:06:04;2.97;;;1.40;;
51614;SDS011;37695;52.960;6.188;2023-04-03T14:08:31;3.95;;;1.45;;
51614;SDS011;37695;52.960;6.188;2023-04-03T14:10:57;2.83;;;1.40;;
51614;SDS011;37695;52.960;6.188;2023-04-03T14:13:23;3.78;;;1.60;;
51614;SDS011;37695;52.960;6.188;2023-04-03T14:15:49;3.88;;;1.50;;
51614;SDS011;37695;52.960;6.188;2023-04-03T14:18:17;3.67;;;1.58;;
51614;SDS011;37695;52.960;6.188;2023-04-03T14:20:44;6.40;;;1.80;;
51614;SDS011;37695;52.960;6.188;2023-04-03T14:23:10;2.28;;;1.50;;
51614;SDS011;37695;52.960;6.188;2023-04-03T14:25:36;3.63;;;1.60;;
51614;SDS011;37695;52.960;6.188;2023-04-03T14:28:12;3.38;;;1.40;;
51614;SDS011;37695;52.960;6.188;2023-04-03T14:30:47;3.00;;;1.50;;
51614;SDS011;37695;52.960;6.188;2023-04-03T14:33:16;3.05;;;1.20;;
51614;SDS011;37695;52.960;6.188;2023-04-03T14:35:44;4.43;;;2.00;;
51614;SDS011;37695;52.960;6.188;2023-04-03T14:38:23;3.17;;;1.52;;
51614;SDS011;37695;52.960;6.188;2023-04-03T14:40:51;2.53;;;1.30;;
51614;SDS011;37695;52.960;6.188;2023-04-03T14:43:18;2.22;;;1.45;;
51614;SDS011;37695;52.960;6.188;2023-04-03T14:45:45;4.50;;;1.60;;
51614;SDS011;37695;52.960;6.188;2023-04-03T14:48:19;3.67;;;1.50;;
51614;SDS011;37695;52.960;6.188;2023-04-03T14:50:50;4.63;;;1.67;;
51614;SDS011;37695;52.960;6.188;2023-04-03T14:53:17;3.17;;;1.70;;
51614;SDS011;37695;52.960;6.188;2023-04-03T14:55:46;2.75;;;1.40;;
51614;SDS011;37695;52.960;6.188;2023-04-03T14:58:16;3.45;;;1.40;;
51614;SDS011;37695;52.960;6.188;2023-04-03T15:00:43;2.53;;;1.38;;
51614;SDS011;37695;52.960;6.188;2023-04-03T15:03:14;2.40;;;1.48;;
51614;SDS011;37695;52.960;6.188;2023-04-03T15:05:44;2.20;;;1.30;;
51614;SDS011;37695;52.960;6.188;2023-04-03T15:10:47;2.65;;;1.40;;
51614;SDS011;37695;52.960;6.188;2023-04-03T15:13:13;2.00;;;1.23;;
51614;SDS011;37695;52.960;6.188;2023-04-03T15:15:40;3.53;;;1.33;;
51614;SDS011;37695;52.960;6.188;2023-04-03T15:18:06;2.80;;;1.40;;
51614;SDS011;37695;52.960;6.188;2023-04-03T15:20:35;2.35;;;1.30;;
51614;SDS011;37695;52.960;6.188;2023-04-03T15:23:01;4.05;;;1.15;;
51614;SDS011;37695;52.960;6.188;2023-04-03T15:25:27;3.35;;;1.23;;
51614;SDS011;37695;52.960;6.188;2023-04-03T15:27:53;2.92;;;1.38;;
51614;SDS011;37695;52.960;6.188;2023-04-03T15:30:20;3.10;;;1.67;;
51614;SDS011;37695;52.960;6.188;2023-04-03T15:32:46;3.13;;;1.23;;
51614;SDS011;37695;52.960;6.188;2023-04-03T15:35:12;2.10;;;1.20;;
51614;SDS011;37695;52.960;6.188;2023-04-03T15:37:38;2.90;;;1.48;;
51614;SDS011;37695;52.960;6.188;2023-04-03T15:40:04;2.65;;;1.30;;
51614;SDS011;37695;52.960;6.188;2023-04-03T15:42:30;2.75;;;1.30;;
51614;SDS011;37695;52.960;6.188;2023-04-03T15:44:56;1.13;;;0.95;;
51614;SDS011;37695;52.960;6.188;2023-04-03T15:47:21;3.33;;;1.20;;
51614;SDS011;37695;52.960;6.188;2023-04-03T15:49:47;2.05;;;1.30;;
51614;SDS011;37695;52.960;6.188;2023-04-03T15:52:12;2.17;;;1.15;;
51614;SDS011;37695;52.960;6.188;2023-04-03T15:54:38;2.95;;;1.35;;
51614;SDS011;37695;52.960;6.188;2023-04-03T15:57:04;3.30;;;1.20;;
51614;SDS011;37695;52.960;6.188;2023-04-03T15:59:29;2.28;;;1.30;;
51614;SDS011;37695;52.960;6.188;2023-04-03T16:01:57;2.05;;;1.20;;
51614;SDS011;37695;52.960;6.188;2023-04-03T16:04:24;4.72;;;1.30;;
51614;SDS011;37695;52.960;6.188;2023-04-03T16:06:50;2.15;;;1.20;;
51614;SDS011;37695;52.960;6.188;2023-04-03T16:09:15;2.80;;;1.30;;
51614;SDS011;37695;52.960;6.188;2023-04-03T16:11:41;3.33;;;1.30;;
51614;SDS011;37695;52.960;6.188;2023-04-03T16:14:08;2.55;;;1.20;;
51614;SDS011;37695;52.960;6.188;2023-04-03T16:16:34;2.20;;;1.20;;
51614;SDS011;37695;52.960;6.188;2023-04-03T16:19:00;1.50;;;1.05;;
51614;SDS011;37695;52.960;6.188;2023-04-03T16:21:26;1.77;;;1.10;;
51614;SDS011;37695;52.960;6.188;2023-04-03T16:23:52;3.38;;;1.52;;
51614;SDS011;37695;52.960;6.188;2023-04-03T16:26:18;2.72;;;1.20;;
51614;SDS011;37695;52.960;6.188;2023-04-03T16:28:44;2.83;;;1.30;;
51614;SDS011;37695;52.960;6.188;2023-04-03T16:31:10;2.40;;;1.10;;
51614;SDS011;37695;52.960;6.188;2023-04-03T16:33:36;4.00;;;1.35;;
51614;SDS011;37695;52.960;6.188;2023-04-03T16:36:02;2.03;;;1.20;;
51614;SDS011;37695;52.960;6.188;2023-04-03T16:38:29;3.38;;;1.10;;
51614;SDS011;37695;52.960;6.188;2023-04-03T16:40:54;2.38;;;1.30;;
51614;SDS011;37695;52.960;6.188;2023-04-03T16:43:24;1.75;;;1.17;;
51614;SDS011;37695;52.960;6.188;2023-04-03T16:45:50;2.20;;;1.23;;
51614;SDS011;37695;52.960;6.188;2023-04-03T16:48:15;2.35;;;1.10;;
51614;SDS011;37695;52.960;6.188;2023-04-03T16:50:41;2.95;;;1.30;;
51614;SDS011;37695;52.960;6.188;2023-04-03T16:53:06;2.58;;;1.20;;
51614;SDS011;37695;52.960;6.188;2023-04-03T16:55:35;3.10;;;1.52;;